createdAt,value
2022-11-10T00:07:13.879Z,81.33
2022-11-10T00:17:16.491Z,81.33
2022-11-10T00:27:19.323Z,81.37
2022-11-10T00:37:21.884Z,81.45
2022-11-10T00:47:24.445Z,81.33
2022-11-10T00:57:27.103Z,81.51
2022-11-10T01:07:29.944Z,81.69
2022-11-10T01:17:33.038Z,81.78
2022-11-10T01:27:35.939Z,81.80
2022-11-10T01:37:40.153Z,81.83
2022-11-10T01:47:42.776Z,81.99
2022-11-10T01:57:45.707Z,82.06
2022-11-10T02:07:48.642Z,82.13
2022-11-10T02:17:51.537Z,82.14
2022-11-10T02:27:54.151Z,82.26
2022-11-10T02:37:57.063Z,82.28
2022-11-10T02:47:59.613Z,82.26
2022-11-10T02:58:02.351Z,82.23
2022-11-10T03:08:05.055Z,82.23
2022-11-10T03:18:08.291Z,82.32
2022-11-10T03:28:11.202Z,82.32
2022-11-10T03:38:13.787Z,82.38
2022-11-10T03:48:16.432Z,82.31
2022-11-10T03:58:19.019Z,82.32
2022-11-10T04:08:39.892Z,82.37
2022-11-10T04:18:42.421Z,82.57
2022-11-10T04:28:44.483Z,82.50
2022-11-10T04:38:47.458Z,82.54
2022-11-10T04:48:50.455Z,82.57
2022-11-10T04:58:53.762Z,82.64
2022-11-10T05:08:56.377Z,82.66
2022-11-10T05:18:59.089Z,82.79
2022-11-10T05:29:01.724Z,82.87
2022-11-10T05:39:04.431Z,82.92
2022-11-10T05:49:07.013Z,83.21
2022-11-10T05:59:09.331Z,83.31
2022-11-10T06:09:12.010Z,83.63
2022-11-10T06:19:13.975Z,83.72
2022-11-10T06:29:16.591Z,83.78
2022-11-10T06:39:19.310Z,84.03
2022-11-10T06:49:21.883Z,83.94
2022-11-10T06:59:24.491Z,84.02
2022-11-10T07:09:27.088Z,84.21
2022-11-10T07:19:31.973Z,84.20
2022-11-10T07:29:34.753Z,84.35
2022-11-10T07:39:37.296Z,84.51
2022-11-10T07:59:41.887Z,84.74
2022-11-10T08:09:45.198Z,84.79
2022-11-10T08:19:48.110Z,85.11
2022-11-10T08:29:50.681Z,85.14
2022-11-10T08:39:53.467Z,85.28
2022-11-10T08:49:56.141Z,85.45
2022-11-10T08:59:58.798Z,85.28
2022-11-10T09:10:07.235Z,85.25
2022-11-10T09:20:12.076Z,85.11
2022-11-10T09:30:19.249Z,85.00
2022-11-10T09:40:21.772Z,85.01
2022-11-10T09:50:24.588Z,84.68
2022-11-10T10:00:31.077Z,84.74
2022-11-10T10:10:33.484Z,84.71
2022-11-10T10:20:41.656Z,84.68
2022-11-10T10:30:44.870Z,84.43
2022-11-10T10:40:49.364Z,84.27
2022-11-10T10:50:51.966Z,83.91
2022-11-10T11:00:54.606Z,83.44
2022-11-10T11:11:06.127Z,83.39
2022-11-10T11:21:08.674Z,83.19
2022-11-10T11:31:11.186Z,82.93
2022-11-10T11:41:13.690Z,82.48
2022-11-10T11:51:15.696Z,82.21
2022-11-10T12:01:23.386Z,81.68
2022-11-10T12:11:25.541Z,81.43
2022-11-10T12:21:27.650Z,81.56
2022-11-10T12:31:32.638Z,81.13
2022-11-10T12:41:34.838Z,80.65
2022-11-10T12:51:39.118Z,80.51
2022-11-10T13:01:43.499Z,80.26
2022-11-10T13:12:03.005Z,80.04
2022-11-10T13:22:09.344Z,80.13
2022-11-10T13:32:24.427Z,80.01
2022-11-10T13:42:27.267Z,79.78
2022-11-10T13:52:29.649Z,79.63
2022-11-10T14:02:49.637Z,79.46
2022-11-10T14:12:55.944Z,79.46
2022-11-10T14:22:59.594Z,79.52
2022-11-10T14:43:05.891Z,79.50
2022-11-10T14:53:13.874Z,79.77
2022-11-10T15:03:19.635Z,79.78
2022-11-10T15:13:23.964Z,79.98
2022-11-10T15:23:33.567Z,80.08
2022-11-10T15:33:36.128Z,80.11
2022-11-10T15:43:39.316Z,80.13
2022-11-10T15:53:43.457Z,80.14
2022-11-10T16:03:46.507Z,80.27
2022-11-10T16:13:50.414Z,80.44
2022-11-10T16:23:53.334Z,80.80
2022-11-10T16:33:56.015Z,80.84
2022-11-10T16:43:58.716Z,81.09
2022-11-10T16:54:01.344Z,81.00
2022-11-10T17:04:04.886Z,81.16
2022-11-10T17:14:09.039Z,81.23
2022-11-10T17:24:11.647Z,81.37
2022-11-10T17:34:14.310Z,81.52
2022-11-10T17:44:17.557Z,81.50
2022-11-10T17:54:20.154Z,81.72
2022-11-10T18:04:22.784Z,81.71
2022-11-10T18:14:25.708Z,81.90
2022-11-10T18:24:28.368Z,82.10
2022-11-10T18:34:31.119Z,82.26
2022-11-10T18:44:34.315Z,82.40
2022-11-10T18:54:37.002Z,82.46
2022-11-10T19:04:39.943Z,82.49
2022-11-10T19:14:42.618Z,82.58
2022-11-10T19:25:06.659Z,82.91
2022-11-10T19:35:06.955Z,82.86
2022-11-10T19:45:08.968Z,82.90
2022-11-10T19:55:11.682Z,83.07
2022-11-10T20:05:15.862Z,83.32
2022-11-10T20:15:18.588Z,83.43
2022-11-10T20:25:21.226Z,83.59
2022-11-10T20:35:23.876Z,83.53
2022-11-10T20:45:26.546Z,83.59
2022-11-10T20:55:52.072Z,83.91
2022-11-10T21:05:52.533Z,84.08
2022-11-10T21:15:56.214Z,84.04
2022-11-10T21:25:59.912Z,83.86
2022-11-10T21:36:04.676Z,84.03
2022-11-10T21:46:07.764Z,83.88
2022-11-10T21:56:11.300Z,83.88
2022-11-10T22:06:15.531Z,84.02
2022-11-10T22:16:39.035Z,84.09
2022-11-10T22:26:41.742Z,84.18
2022-11-10T22:36:45.011Z,84.14
2022-11-10T22:46:50.553Z,84.05
2022-11-10T22:56:53.159Z,84.21
2022-11-10T23:06:55.853Z,84.24
2022-11-10T23:16:58.522Z,84.22
2022-11-10T23:27:01.137Z,84.33
2022-11-10T23:37:03.900Z,84.36
2022-11-10T23:47:06.506Z,84.33
2022-11-10T23:57:09.092Z,84.33
